Time,TemperatureF,DewpointF,PressureIn,WindDirection,WindDirectionDegrees,WindSpeedMPH,WindSpeedGustMPH,Humidity,HourlyPrecipIn,Conditions,Clouds,dailyrainin,SoftwareType,DateUTC
2013-11-18 00:00:00,36.4,28.9,29.92,WNW,292,10.0,19.0,74,0.00,,,0.01,Wunderground v.1.15,2013-11-18 06:00:00,
2013-11-18 00:06:00,36.2,28.7,29.93,NW,304,9.0,17.0,74,0.00,,,0.00,Wunderground v.1.15,2013-11-18 06:06:00,
2013-11-18 00:11:00,35.9,28.7,29.92,WNW,291,13.0,13.0,75,0.00,,,0.00,Wunderground v.1.15,2013-11-18 06:11:00,
2013-11-18 00:17:00,35.6,28.5,29.92,WNW,292,10.0,13.0,75,0.00,,,0.00,Wunderground v.1.15,2013-11-18 06:17:00,
2013-11-18 00:23:00,35.2,28.1,29.93,WNW,290,11.0,12.0,75,0.00,,,0.00,Wunderground v.1.15,2013-11-18 06:23:00,
2013-11-18 00:28:00,35.2,28.4,29.93,WNW,294,7.0,14.0,76,0.00,,,0.00,Wunderground v.1.15,2013-11-18 06:28:00,
2013-11-18 00:34:00,35.3,28.5,29.93,WNW,292,11.0,12.0,76,0.00,,,0.00,Wunderground v.1.15,2013-11-18 06:34:00,
2013-11-18 00:39:00,35.4,28.3,29.93,WNW,293,9.0,13.0,75,0.00,,,0.00,Wunderground v.1.15,2013-11-18 06:39:00,
2013-11-18 00:46:00,35.3,28.2,29.93,WNW,299,9.0,15.0,75,0.00,,,0.00,Wunderground v.1.15,2013-11-18 06:46:00,
2013-11-18 00:51:00,35.1,28.0,29.93,NW,307,9.0,10.0,75,0.00,,,0.00,Wunderground v.1.15,2013-11-18 06:51:00,
2013-11-18 00:57:00,34.6,27.5,29.93,WNW,302,8.0,12.0,75,0.00,,,0.00,Wunderground v.1.15,2013-11-18 06:57:00,
2013-11-18 01:02:00,34.3,27.2,29.94,WNW,300,9.0,10.0,75,0.00,,,0.00,Wunderground v.1.15,2013-11-18 07:02:00,
2013-11-18 01:08:00,33.5,26.4,29.94,WNW,303,9.0,10.0,75,0.00,,,0.00,Wunderground v.1.15,2013-11-18 07:08:00,
2013-11-18 01:14:00,32.9,26.2,29.94,WNW,295,7.0,10.0,76,0.00,,,0.00,Wunderground v.1.15,2013-11-18 07:14:00,
2013-11-18 01:20:00,32.9,26.5,29.94,WNW,291,9.0,10.0,77,0.00,,,0.00,Wunderground v.1.15,2013-11-18 07:20:00,
2013-11-18 01:25:00,33.1,26.7,29.94,WNW,295,8.0,9.0,77,0.00,,,0.00,Wunderground v.1.15,2013-11-18 07:25:00,
2013-11-18 01:31:00,32.7,26.3,29.95,WNW,294,7.0,8.0,77,0.00,,,0.00,Wunderground v.1.15,2013-11-18 07:31:00,
2013-11-18 01:36:00,32.1,25.7,29.95,WNW,292,7.0,8.0,77,0.00,,,0.00,Wunderground v.1.15,2013-11-18 07:36:00,
2013-11-18 01:42:00,31.7,26.2,29.94,WNW,293,6.0,6.0,80,0.00,,,0.00,Wunderground v.1.15,2013-11-18 07:42:00,
2013-11-18 01:48:00,31.2,26.0,29.95,WNW,293,5.0,7.0,81,0.00,,,0.00,Wunderground v.1.15,2013-11-18 07:48:00,
2013-11-18 01:53:00,30.7,25.6,29.96,WNW,284,12.0,12.0,81,0.00,,,0.00,Wunderground v.1.15,2013-11-18 07:53:00,
2013-11-18 01:59:00,31.0,26.1,29.96,WNW,290,7.0,12.0,82,0.00,,,0.00,Wunderground v.1.15,2013-11-18 07:59:00,
2013-11-18 02:05:00,30.8,26.0,29.96,WNW,284,4.0,8.0,82,0.00,,,0.00,Wunderground v.1.15,2013-11-18 08:05:00,
2013-11-18 02:10:00,30.3,25.5,29.96,WNW,285,4.0,8.0,82,0.00,,,0.00,Wunderground v.1.15,2013-11-18 08:10:00,
2013-11-18 02:15:00,29.7,24.9,29.97,WNW,285,3.0,6.0,82,0.00,,,0.00,Wunderground v.1.15,2013-11-18 08:15:00,
2013-11-18 02:20:00,29.4,24.9,29.97,WNW,285,4.0,7.0,83,0.00,,,0.00,Wunderground v.1.15,2013-11-18 08:20:00,
2013-11-18 02:25:00,29.2,25.0,29.97,WNW,284,6.0,8.0,84,0.00,,,0.00,Wunderground v.1.15,2013-11-18 08:25:00,
2013-11-18 02:30:00,29.3,25.1,29.97,WNW,283,7.0,9.0,84,0.00,,,0.00,Wunderground v.1.15,2013-11-18 08:30:00,
2013-11-18 02:35:00,29.1,24.9,29.97,WNW,284,6.0,7.0,84,0.00,,,0.00,Wunderground v.1.15,2013-11-18 08:35:00,
2013-11-18 02:40:00,28.8,24.9,29.98,WNW,284,7.0,7.0,85,0.00,,,0.00,Wunderground v.1.15,2013-11-18 08:40:00,
2013-11-18 02:45:00,28.6,24.7,29.97,WNW,283,4.0,9.0,85,0.00,,,0.00,Wunderground v.1.15,2013-11-18 08:45:00,
2013-11-18 02:50:00,28.5,24.6,29.98,WNW,283,4.0,9.0,85,0.00,,,0.00,Wunderground v.1.15,2013-11-18 08:50:00,
2013-11-18 02:55:00,28.4,24.7,29.98,WNW,283,5.0,8.0,86,0.00,,,0.00,Wunderground v.1.15,2013-11-18 08:55:00,
2013-11-18 03:00:00,28.5,24.8,29.99,West,281,7.0,9.0,86,0.00,,,0.00,Wunderground v.1.15,2013-11-18 09:00:00,
2013-11-18 03:05:00,28.5,24.8,29.99,West,277,9.0,10.0,86,0.00,,,0.00,Wunderground v.1.15,2013-11-18 09:05:00,
2013-11-18 03:10:00,28.5,24.8,29.99,West,276,8.0,10.0,86,0.00,,,0.00,Wunderground v.1.15,2013-11-18 09:10:00,
2013-11-18 03:15:00,28.5,24.8,29.99,West,275,6.0,10.0,86,0.00,,,0.00,Wunderground v.1.15,2013-11-18 09:15:00,
2013-11-18 03:20:00,28.6,24.9,30.00,West,273,6.0,10.0,86,0.00,,,0.00,Wunderground v.1.15,2013-11-18 09:20:00,
2013-11-18 03:25:00,28.7,25.0,30.00,West,275,9.0,11.0,86,0.00,,,0.00,Wunderground v.1.15,2013-11-18 09:25:00,
2013-11-18 03:30:00,28.8,25.1,30.00,West,275,7.0,12.0,86,0.00,,,0.00,Wunderground v.1.15,2013-11-18 09:30:00,
2013-11-18 03:35:00,28.8,25.1,30.00,West,276,9.0,13.0,86,0.00,,,0.00,Wunderground v.1.15,2013-11-18 09:35:00,
2013-11-18 03:40:00,28.9,25.2,30.00,West,281,9.0,15.0,86,0.00,,,0.00,Wunderground v.1.15,2013-11-18 09:40:00,
2013-11-18 03:45:00,28.9,25.2,30.00,West,277,7.0,13.0,86,0.00,,,0.00,Wunderground v.1.15,2013-11-18 09:45:00,
2013-11-18 03:50:00,28.9,25.2,30.00,West,281,9.0,14.0,86,0.00,,,0.00,Wunderground v.1.15,2013-11-18 09:50:00,
2013-11-18 03:55:00,28.7,24.8,30.00,West,281,11.0,12.0,85,0.00,,,0.00,Wunderground v.1.15,2013-11-18 09:55:00,
2013-11-18 04:00:00,28.7,24.8,30.01,WNW,282,10.0,13.0,85,0.00,,,0.00,Wunderground v.1.15,2013-11-18 10:00:00,
2013-11-18 04:05:00,28.5,24.6,30.01,West,280,7.0,12.0,85,0.00,,,0.00,Wunderground v.1.15,2013-11-18 10:05:00,
2013-11-18 04:10:00,28.4,24.5,30.01,West,280,7.0,8.0,85,0.00,,,0.00,Wunderground v.1.15,2013-11-18 10:10:00,
2013-11-18 04:15:00,28.2,24.6,30.01,West,280,7.0,11.0,86,0.00,,,0.00,Wunderground v.1.15,2013-11-18 10:15:00,
2013-11-18 04:20:00,28.1,24.5,30.02,WNW,282,7.0,9.0,86,0.00,,,0.00,Wunderground v.1.15,2013-11-18 10:20:00,
2013-11-18 04:25:00,27.9,24.0,30.01,West,281,6.0,9.0,85,0.00,,,0.00,Wunderground v.1.15,2013-11-18 10:25:00,
2013-11-18 04:31:00,27.6,24.0,30.02,West,281,5.0,8.0,86,0.00,,,0.00,Wunderground v.1.15,2013-11-18 10:31:00,
2013-11-18 04:36:00,27.4,23.8,30.02,West,281,5.0,9.0,86,0.00,,,0.00,Wunderground v.1.15,2013-11-18 10:36:00,
2013-11-18 04:41:00,27.3,23.7,30.02,WNW,282,6.0,8.0,86,0.00,,,0.00,Wunderground v.1.15,2013-11-18 10:41:00,
2013-11-18 04:46:00,27.3,23.7,30.03,WNW,283,5.0,9.0,86,0.00,,,0.00,Wunderground v.1.15,2013-11-18 10:46:00,
2013-11-18 04:51:00,27.2,23.6,30.03,WNW,283,8.0,8.0,86,0.00,,,0.00,Wunderground v.1.15,2013-11-18 10:51:00,
2013-11-18 04:56:00,27.3,23.7,30.03,WNW,282,8.0,9.0,86,0.00,,,0.00,Wunderground v.1.15,2013-11-18 10:56:00,
2013-11-18 05:01:00,27.3,23.7,30.03,WNW,283,6.0,7.0,86,0.00,,,0.00,Wunderground v.1.15,2013-11-18 11:01:00,
2013-11-18 05:06:00,27.2,23.6,30.03,WNW,283,7.0,9.0,86,0.00,,,0.00,Wunderground v.1.15,2013-11-18 11:06:00,
2013-11-18 05:11:00,27.3,23.7,30.03,WNW,282,7.0,7.0,86,0.00,,,0.00,Wunderground v.1.15,2013-11-18 11:11:00,
2013-11-18 05:16:00,27.2,23.6,30.04,WNW,284,5.0,12.0,86,0.00,,,0.00,Wunderground v.1.15,2013-11-18 11:16:00,
2013-11-18 05:21:00,27.2,23.6,30.04,WNW,288,6.0,7.0,86,0.00,,,0.00,Wunderground v.1.15,2013-11-18 11:21:00,
2013-11-18 05:26:00,27.0,23.4,30.04,WNW,289,5.0,9.0,86,0.00,,,0.00,Wunderground v.1.15,2013-11-18 11:26:00,
2013-11-18 05:31:00,27.0,23.6,30.04,WNW,288,6.0,7.0,87,0.00,,,0.00,Wunderground v.1.15,2013-11-18 11:31:00,
2013-11-18 05:36:00,27.2,23.8,30.05,WNW,288,6.0,10.0,87,0.00,,,0.00,Wunderground v.1.15,2013-11-18 11:36:00,
2013-11-18 05:41:00,27.3,23.9,30.05,WNW,288,5.0,7.0,87,0.00,,,0.00,Wunderground v.1.15,2013-11-18 11:41:00,
2013-11-18 05:46:00,27.5,24.1,30.05,WNW,291,9.0,11.0,87,0.00,,,0.00,Wunderground v.1.15,2013-11-18 11:46:00,
2013-11-18 05:52:00,27.7,24.1,30.05,WNW,292,8.0,8.0,86,0.00,,,0.00,Wunderground v.1.15,2013-11-18 11:52:00,
2013-11-18 05:57:00,27.7,24.1,30.05,WNW,291,6.0,9.0,86,0.00,,,0.00,Wunderground v.1.15,2013-11-18 11:57:00,
2013-11-18 06:02:00,27.3,23.7,30.05,WNW,291,7.0,7.0,86,0.00,,,0.00,Wunderground v.1.15,2013-11-18 12:02:00,
2013-11-18 06:07:00,27.0,23.4,30.06,WNW,291,6.0,8.0,86,0.00,,,0.00,Wunderground v.1.15,2013-11-18 12:07:00,
2013-11-18 06:12:00,26.6,23.0,30.06,WNW,291,6.0,8.0,86,0.00,,,0.00,Wunderground v.1.15,2013-11-18 12:12:00,
2013-11-18 06:17:00,26.2,22.6,30.06,WNW,291,5.0,8.0,86,0.00,,,0.00,Wunderground v.1.15,2013-11-18 12:17:00,
2013-11-18 06:22:00,26.0,22.4,30.06,WNW,291,4.0,6.0,86,0.00,,,0.00,Wunderground v.1.15,2013-11-18 12:22:00,
2013-11-18 06:27:00,25.7,22.1,30.06,WNW,291,5.0,7.0,86,0.00,,,0.00,Wunderground v.1.15,2013-11-18 12:27:00,
2013-11-18 06:32:00,25.4,21.8,30.06,WNW,291,4.0,5.0,86,0.00,,,0.00,Wunderground v.1.15,2013-11-18 12:32:00,
2013-11-18 06:37:00,25.2,21.6,30.07,WNW,291,4.0,7.0,86,0.00,,,0.00,Wunderground v.1.15,2013-11-18 12:37:00,
2013-11-18 06:42:00,24.9,21.6,30.07,WNW,291,4.0,5.0,87,0.00,,,0.00,Wunderground v.1.15,2013-11-18 12:42:00,
2013-11-18 06:47:00,24.6,21.0,30.07,WNW,291,3.0,5.0,86,0.00,,,0.00,Wunderground v.1.15,2013-11-18 12:47:00,
2013-11-18 06:52:00,24.5,21.2,30.08,WNW,291,4.0,5.0,87,0.00,,,0.00,Wunderground v.1.15,2013-11-18 12:52:00,
2013-11-18 06:57:00,24.4,21.1,30.08,WNW,291,2.0,5.0,87,0.00,,,0.00,Wunderground v.1.15,2013-11-18 12:57:00,
2013-11-18 07:02:00,24.2,20.9,30.08,WNW,291,3.0,3.0,87,0.00,,,0.00,Wunderground v.1.15,2013-11-18 13:02:00,
2013-11-18 07:07:00,24.3,21.0,30.09,WNW,291,3.0,6.0,87,0.00,,,0.00,Wunderground v.1.15,2013-11-18 13:07:00,
2013-11-18 07:12:00,24.4,21.1,30.09,WNW,291,3.0,4.0,87,0.00,,,0.00,Wunderground v.1.15,2013-11-18 13:12:00,
2013-11-18 07:17:00,24.3,21.0,30.09,WNW,291,3.0,4.0,87,0.00,,,0.00,Wunderground v.1.15,2013-11-18 13:17:00,
2013-11-18 07:22:00,23.8,20.5,30.09,WNW,291,2.0,2.0,87,0.00,,,0.00,Wunderground v.1.15,2013-11-18 13:22:00,
2013-11-18 07:28:00,23.6,20.3,30.09,WNW,291,4.0,5.0,87,0.00,,,0.00,Wunderground v.1.15,2013-11-18 13:28:00,
2013-11-18 07:33:00,23.6,20.3,30.10,WNW,291,2.0,4.0,87,0.00,,,0.00,Wunderground v.1.15,2013-11-18 13:33:00,
2013-11-18 07:38:00,23.5,20.2,30.10,WNW,291,0.0,4.0,87,0.00,,,0.00,Wunderground v.1.15,2013-11-18 13:38:00,
2013-11-18 07:43:00,23.4,20.1,30.10,WNW,291,0.0,1.0,87,0.00,,,0.00,Wunderground v.1.15,2013-11-18 13:43:00,
2013-11-18 07:48:00,23.4,20.1,30.11,WNW,291,0.0,1.0,87,0.00,,,0.00,Wunderground v.1.15,2013-11-18 13:48:00,
2013-11-18 07:53:00,23.5,20.2,30.11,WNW,291,4.0,4.0,87,0.00,,,0.00,Wunderground v.1.15,2013-11-18 13:53:00,
2013-11-18 07:58:00,23.9,20.6,30.11,WNW,291,3.0,5.0,87,0.00,,,0.00,Wunderground v.1.15,2013-11-18 13:58:00,
2013-11-18 08:03:00,24.2,21.2,30.11,WNW,291,0.0,2.0,88,0.00,,,0.00,Wunderground v.1.15,2013-11-18 14:03:00,
2013-11-18 08:08:00,24.5,21.5,30.11,WNW,291,5.0,5.0,88,0.00,,,0.00,Wunderground v.1.15,2013-11-18 14:08:00,
2013-11-18 08:13:00,25.5,22.4,30.12,WNW,291,4.0,7.0,88,0.00,,,0.00,Wunderground v.1.15,2013-11-18 14:13:00,
2013-11-18 08:18:00,26.5,23.4,30.12,WNW,294,7.0,10.0,88,0.00,,,0.00,Wunderground v.1.15,2013-11-18 14:18:00,
2013-11-18 08:23:00,27.0,23.9,30.12,WNW,295,8.0,10.0,88,0.00,,,0.00,Wunderground v.1.15,2013-11-18 14:23:00,
2013-11-18 08:28:00,27.3,23.9,30.12,WNW,296,6.0,12.0,87,0.00,,,0.00,Wunderground v.1.15,2013-11-18 14:28:00,
2013-11-18 08:33:00,27.6,24.2,30.13,WNW,297,8.0,9.0,87,0.00,,,0.00,Wunderground v.1.15,2013-11-18 14:33:00,
2013-11-18 08:38:00,27.8,24.4,30.13,WNW,297,5.0,10.0,87,0.00,,,0.00,Wunderground v.1.15,2013-11-18 14:38:00,
2013-11-18 08:43:00,28.0,24.4,30.13,WNW,296,6.0,8.0,86,0.00,,,0.00,Wunderground v.1.15,2013-11-18 14:43:00,
2013-11-18 08:48:00,28.3,24.6,30.14,WNW,298,9.0,9.0,86,0.00,,,0.00,Wunderground v.1.15,2013-11-18 14:48:00,
2013-11-18 08:53:00,28.8,25.1,30.14,WNW,298,7.0,11.0,86,0.00,,,0.00,Wunderground v.1.15,2013-11-18 14:53:00,
2013-11-18 08:58:00,29.1,25.2,30.14,WNW,295,6.0,12.0,85,0.00,,,0.00,Wunderground v.1.15,2013-11-18 14:58:00,
2013-11-18 09:03:00,29.5,25.3,30.15,WNW,298,8.0,10.0,84,0.00,,,0.00,Wunderground v.1.15,2013-11-18 15:03:00,
2013-11-18 09:08:00,29.8,25.6,30.15,WNW,296,7.0,10.0,84,0.00,,,0.00,Wunderground v.1.15,2013-11-18 15:08:00,
2013-11-18 09:13:00,29.9,25.4,30.15,WNW,296,8.0,11.0,83,0.00,,,0.00,Wunderground v.1.15,2013-11-18 15:13:00,
2013-11-18 09:18:00,30.1,25.3,30.15,WNW,299,7.0,13.0,82,0.00,,,0.00,Wunderground v.1.15,2013-11-18 15:18:00,
2013-11-18 09:23:00,30.5,25.4,30.16,WNW,298,9.0,12.0,81,0.00,,,0.00,Wunderground v.1.15,2013-11-18 15:23:00,
2013-11-18 09:28:00,30.6,25.5,30.16,WNW,298,9.0,12.0,81,0.00,,,0.00,Wunderground v.1.15,2013-11-18 15:28:00,
2013-11-18 09:33:00,31.0,25.6,30.16,WNW,295,8.0,11.0,80,0.00,,,0.00,Wunderground v.1.15,2013-11-18 15:33:00,
2013-11-18 09:38:00,31.1,25.3,30.16,WNW,302,9.0,12.0,79,0.00,,,0.00,Wunderground v.1.15,2013-11-18 15:38:00,
2013-11-18 09:43:00,31.3,25.5,30.16,WNW,298,9.0,11.0,79,0.00,,,0.00,Wunderground v.1.15,2013-11-18 15:43:00,
2013-11-18 09:48:00,31.5,25.4,30.17,WNW,295,10.0,11.0,78,0.00,,,0.00,Wunderground v.1.15,2013-11-18 15:48:00,
2013-11-18 09:51:00,31.7,25.6,30.17,NW,306,8.0,9.0,78,0.00,,,0.00,Wunderground v.1.15,2013-11-18 15:51:00,
2013-11-18 09:56:00,32.1,25.7,30.17,WNW,298,10.0,11.0,77,0.00,,,0.00,Wunderground v.1.15,2013-11-18 15:56:00,
2013-11-18 10:01:00,32.3,25.6,30.17,WNW,298,10.0,12.0,76,0.00,,,0.00,Wunderground v.1.15,2013-11-18 16:01:00,
2013-11-18 10:06:00,32.4,25.7,30.18,NW,316,15.0,15.0,76,0.00,,,0.00,Wunderground v.1.15,2013-11-18 16:06:00,
2013-11-18 10:11:00,32.6,25.6,30.18,WNW,290,6.0,10.0,75,0.00,,,0.00,Wunderground v.1.15,2013-11-18 16:11:00,
2013-11-18 10:16:00,32.8,25.7,30.18,WNW,298,12.0,14.0,75,0.00,,,0.00,Wunderground v.1.15,2013-11-18 16:16:00,
2013-11-18 10:21:00,32.7,25.6,30.19,West,278,13.0,13.0,75,0.00,,,0.00,Wunderground v.1.15,2013-11-18 16:21:00,
2013-11-18 10:26:00,33.1,26.0,30.19,WNW,296,12.0,14.0,75,0.00,,,0.00,Wunderground v.1.15,2013-11-18 16:26:00,
2013-11-18 10:31:00,33.1,25.7,30.19,WNW,299,9.0,9.0,74,0.00,,,0.00,Wunderground v.1.15,2013-11-18 16:31:00,
2013-11-18 10:36:00,33.3,25.9,30.19,NW,314,9.0,14.0,74,0.00,,,0.00,Wunderground v.1.15,2013-11-18 16:36:00,
2013-11-18 10:41:00,33.5,26.1,30.19,NW,314,8.0,9.0,74,0.00,,,0.00,Wunderground v.1.15,2013-11-18 16:41:00,
2013-11-18 10:46:00,33.9,26.2,30.20,NW,304,9.0,12.0,73,0.00,,,0.00,Wunderground v.1.15,2013-11-18 16:46:00,
2013-11-18 10:51:00,34.2,26.4,30.20,WNW,288,9.0,10.0,73,0.00,,,0.00,Wunderground v.1.15,2013-11-18 16:51:00,
2013-11-18 10:56:00,34.3,26.5,30.20,NW,307,10.0,13.0,73,0.00,,,0.00,Wunderground v.1.15,2013-11-18 16:56:00,
2013-11-18 11:01:00,34.4,26.3,30.20,NW,311,11.0,12.0,72,0.00,,,0.00,Wunderground v.1.15,2013-11-18 17:01:00,
2013-11-18 11:06:00,34.4,26.3,30.20,WNW,293,7.0,13.0,72,0.00,,,0.00,Wunderground v.1.15,2013-11-18 17:06:00,
2013-11-18 11:11:00,34.4,26.3,30.20,WNW,295,8.0,9.0,72,0.00,,,0.00,Wunderground v.1.15,2013-11-18 17:11:00,
2013-11-18 11:16:00,35.0,26.9,30.20,WNW,299,7.0,13.0,72,0.00,,,0.00,Wunderground v.1.15,2013-11-18 17:16:00,
2013-11-18 11:22:00,35.3,26.8,30.20,WNW,286,6.0,8.0,71,0.00,,,0.00,Wunderground v.1.15,2013-11-18 17:22:00,
2013-11-18 11:27:00,35.3,26.8,30.20,WNW,303,8.0,12.0,71,0.00,,,0.00,Wunderground v.1.15,2013-11-18 17:27:00,
2013-11-18 11:32:00,35.6,26.8,30.20,NW,315,8.0,10.0,70,0.00,,,0.00,Wunderground v.1.15,2013-11-18 17:32:00,
2013-11-18 11:37:00,35.6,26.8,30.20,NW,307,7.0,13.0,70,0.00,,,0.00,Wunderground v.1.15,2013-11-18 17:37:00,
2013-11-18 11:42:00,35.7,26.9,30.20,West,277,11.0,13.0,70,0.00,,,0.00,Wunderground v.1.15,2013-11-18 17:42:00,
2013-11-18 11:47:00,36.2,27.0,30.20,West,279,7.0,14.0,69,0.00,,,0.00,Wunderground v.1.15,2013-11-18 17:47:00,
2013-11-18 11:52:00,36.3,26.7,30.20,WNW,299,7.0,9.0,68,0.00,,,0.00,Wunderground v.1.15,2013-11-18 17:52:00,
2013-11-18 11:57:00,36.6,27.0,30.20,NW,309,6.0,12.0,68,0.00,,,0.00,Wunderground v.1.15,2013-11-18 17:57:00,
2013-11-18 12:02:00,36.8,27.2,30.20,WNW,290,7.0,9.0,68,0.00,,,0.00,Wunderground v.1.15,2013-11-18 18:02:00,
2013-11-18 12:07:00,36.5,26.9,30.20,WNW,298,8.0,12.0,68,0.00,,,0.00,Wunderground v.1.15,2013-11-18 18:07:00,
2013-11-18 12:12:00,36.6,27.0,30.19,WNW,293,6.0,13.0,68,0.00,,,0.00,Wunderground v.1.15,2013-11-18 18:12:00,
2013-11-18 12:17:00,37.0,27.4,30.19,WNW,288,7.0,13.0,68,0.00,,,0.00,Wunderground v.1.15,2013-11-18 18:17:00,
2013-11-18 12:22:00,37.0,27.4,30.19,WNW,300,11.0,13.0,68,0.00,,,0.00,Wunderground v.1.15,2013-11-18 18:22:00,
2013-11-18 12:27:00,37.7,27.7,30.19,WNW,300,11.0,13.0,67,0.00,,,0.00,Wunderground v.1.15,2013-11-18 18:27:00,
2013-11-18 12:32:00,37.6,27.6,30.18,NW,306,7.0,10.0,67,0.00,,,0.00,Wunderground v.1.15,2013-11-18 18:32:00,
2013-11-18 12:37:00,37.8,27.5,30.19,WNW,297,10.0,13.0,66,0.00,,,0.00,Wunderground v.1.15,2013-11-18 18:37:00,
2013-11-18 12:42:00,38.0,27.3,30.18,West,276,8.0,8.0,65,0.00,,,0.00,Wunderground v.1.15,2013-11-18 18:42:00,
2013-11-18 12:47:00,38.4,27.3,30.18,WNW,300,7.0,13.0,64,0.00,,,0.00,Wunderground v.1.15,2013-11-18 18:47:00,
2013-11-18 12:52:00,38.1,27.0,30.18,WNW,290,6.0,8.0,64,0.00,,,0.00,Wunderground v.1.15,2013-11-18 18:52:00,
2013-11-18 12:57:00,37.7,27.0,30.18,NW,310,8.0,11.0,65,0.00,,,0.00,Wunderground v.1.15,2013-11-18 18:57:00,
2013-11-18 13:02:00,38.1,27.7,30.18,WNW,302,7.0,8.0,66,0.00,,,0.00,Wunderground v.1.15,2013-11-18 19:02:00,
2013-11-18 13:07:00,38.1,27.0,30.18,WNW,292,10.0,12.0,64,0.00,,,0.00,Wunderground v.1.15,2013-11-18 19:07:00,
2013-11-18 13:12:00,38.5,28.1,30.18,NW,309,7.0,10.0,66,0.00,,,0.00,Wunderground v.1.15,2013-11-18 19:12:00,
2013-11-18 13:17:00,39.3,27.7,30.18,West,269,9.0,12.0,63,0.00,,,0.00,Wunderground v.1.15,2013-11-18 19:17:00,
2013-11-18 13:22:00,39.2,27.7,30.18,WNW,298,7.0,9.0,63,0.00,,,0.00,Wunderground v.1.15,2013-11-18 19:22:00,
2013-11-18 13:27:00,39.7,28.1,30.18,WNW,291,7.0,12.0,63,0.00,,,0.00,Wunderground v.1.15,2013-11-18 19:27:00,
2013-11-18 13:32:00,39.8,27.8,30.18,WNW,286,4.0,11.0,62,0.00,,,0.00,Wunderground v.1.15,2013-11-18 19:32:00,
2013-11-18 13:37:00,40.3,27.9,30.18,NW,315,6.0,11.0,61,0.00,,,0.00,Wunderground v.1.15,2013-11-18 19:37:00,
2013-11-18 13:42:00,40.6,28.2,30.18,WNW,291,7.0,9.0,61,0.00,,,0.00,Wunderground v.1.15,2013-11-18 19:42:00,
2013-11-18 13:47:00,40.8,28.0,30.18,NW,310,5.0,9.0,60,0.00,,,0.00,Wunderground v.1.15,2013-11-18 19:47:00,
2013-11-18 13:52:00,40.6,27.8,30.18,WNW,284,9.0,11.0,60,0.00,,,0.00,Wunderground v.1.15,2013-11-18 19:52:00,
2013-11-18 13:58:00,40.4,27.6,30.18,WNW,298,2.0,11.0,60,0.00,,,0.00,Wunderground v.1.15,2013-11-18 19:58:00,
2013-11-18 14:03:00,40.6,27.4,30.18,WNW,296,5.0,9.0,59,0.00,,,0.00,Wunderground v.1.15,2013-11-18 20:03:00,
2013-11-18 14:08:00,40.8,28.0,30.18,WNW,299,8.0,10.0,60,0.00,,,0.00,Wunderground v.1.15,2013-11-18 20:08:00,
2013-11-18 14:13:00,41.3,28.4,30.18,WNW,302,8.0,8.0,60,0.00,,,0.00,Wunderground v.1.15,2013-11-18 20:13:00,
2013-11-18 14:18:00,41.5,28.2,30.18,NW,311,8.0,11.0,59,0.00,,,0.00,Wunderground v.1.15,2013-11-18 20:18:00,
2013-11-18 14:23:00,41.7,28.0,30.18,NW,304,5.0,7.0,58,0.00,,,0.00,Wunderground v.1.15,2013-11-18 20:23:00,
2013-11-18 14:28:00,41.7,27.6,30.17,WNW,292,7.0,10.0,57,0.00,,,0.00,Wunderground v.1.15,2013-11-18 20:28:00,
2013-11-18 14:33:00,41.6,27.9,30.18,WNW,295,6.0,8.0,58,0.00,,,0.00,Wunderground v.1.15,2013-11-18 20:33:00,
2013-11-18 14:38:00,41.8,27.7,30.18,WNW,296,5.0,11.0,57,0.00,,,0.00,Wunderground v.1.15,2013-11-18 20:38:00,
2013-11-18 14:43:00,41.6,27.5,30.18,WNW,298,5.0,9.0,57,0.00,,,0.00,Wunderground v.1.15,2013-11-18 20:43:00,
2013-11-18 14:48:00,41.9,27.8,30.18,NW,305,8.0,9.0,57,0.00,,,0.00,Wunderground v.1.15,2013-11-18 20:48:00,
2013-11-18 14:53:00,41.9,27.8,30.18,NW,306,1.0,8.0,57,0.00,,,0.00,Wunderground v.1.15,2013-11-18 20:53:00,
2013-11-18 14:58:00,42.2,27.6,30.18,NW,306,8.0,9.0,56,0.00,,,0.00,Wunderground v.1.15,2013-11-18 20:58:00,
2013-11-18 15:03:00,42.2,27.2,30.18,NW,305,5.0,7.0,55,0.00,,,0.00,Wunderground v.1.15,2013-11-18 21:03:00,
2013-11-18 15:08:00,42.0,27.0,30.18,NW,304,4.0,7.0,55,0.00,,,0.00,Wunderground v.1.15,2013-11-18 21:08:00,
2013-11-18 15:13:00,41.9,26.9,30.17,NW,305,2.0,7.0,55,0.00,,,0.00,Wunderground v.1.15,2013-11-18 21:13:00,
2013-11-18 15:18:00,41.9,26.9,30.17,NW,306,5.0,7.0,55,0.00,,,0.00,Wunderground v.1.15,2013-11-18 21:18:00,
2013-11-18 15:23:00,41.8,26.8,30.17,NW,306,4.0,6.0,55,0.00,,,0.00,Wunderground v.1.15,2013-11-18 21:23:00,
2013-11-18 15:28:00,41.9,26.9,30.17,NW,306,4.0,6.0,55,0.00,,,0.00,Wunderground v.1.15,2013-11-18 21:28:00,
2013-11-18 15:33:00,41.9,26.9,30.17,NW,306,1.0,3.0,55,0.00,,,0.00,Wunderground v.1.15,2013-11-18 21:33:00,
2013-11-18 15:38:00,41.9,26.9,30.17,NW,306,0.0,3.0,55,0.00,,,0.00,Wunderground v.1.15,2013-11-18 21:38:00,
2013-11-18 15:43:00,41.8,26.8,30.18,NW,306,4.0,6.0,55,0.00,,,0.00,Wunderground v.1.15,2013-11-18 21:43:00,
2013-11-18 15:48:00,41.6,26.6,30.18,NW,306,1.0,6.0,55,0.00,,,0.00,Wunderground v.1.15,2013-11-18 21:48:00,
2013-11-18 15:53:00,41.6,26.6,30.18,NW,306,0.0,2.0,55,0.00,,,0.00,Wunderground v.1.15,2013-11-18 21:53:00,
2013-11-18 15:58:00,41.5,26.5,30.18,NW,306,1.0,3.0,55,0.00,,,0.00,Wunderground v.1.15,2013-11-18 21:58:00,
2013-11-18 16:03:00,41.4,26.9,30.18,NW,306,0.0,1.0,56,0.00,,,0.00,Wunderground v.1.15,2013-11-18 22:03:00,
2013-11-18 16:09:00,41.2,26.7,30.18,NW,306,0.0,1.0,56,0.00,,,0.00,Wunderground v.1.15,2013-11-18 22:09:00,
2013-11-18 16:14:00,41.2,26.7,30.19,NW,306,0.0,0.0,56,0.00,,,0.00,Wunderground v.1.15,2013-11-18 22:14:00,
2013-11-18 16:19:00,41.0,26.5,30.18,NW,306,0.0,0.0,56,0.00,,,0.00,Wunderground v.1.15,2013-11-18 22:19:00,
2013-11-18 16:24:00,40.7,26.2,30.18,NW,306,0.0,0.0,56,0.00,,,0.00,Wunderground v.1.15,2013-11-18 22:24:00,
2013-11-18 16:29:00,40.4,26.4,30.18,NW,306,0.0,0.0,57,0.00,,,0.00,Wunderground v.1.15,2013-11-18 22:29:00,
2013-11-18 16:34:00,40.2,25.7,30.18,NW,306,0.0,0.0,56,0.00,,,0.00,Wunderground v.1.15,2013-11-18 22:34:00,
2013-11-18 16:39:00,38.9,24.5,30.18,NW,306,0.0,0.0,56,0.00,,,0.00,Wunderground v.1.15,2013-11-18 22:39:00,
2013-11-18 16:44:00,36.9,23.1,30.18,NW,306,0.0,0.0,57,0.00,,,0.00,Wunderground v.1.15,2013-11-18 22:44:00,
2013-11-18 16:49:00,35.0,22.1,30.18,NW,306,0.0,0.0,59,0.00,,,0.00,Wunderground v.1.15,2013-11-18 22:49:00,
2013-11-18 16:54:00,33.5,21.5,30.18,NW,306,0.0,0.0,61,0.00,,,0.00,Wunderground v.1.15,2013-11-18 22:54:00,
2013-11-18 16:59:00,31.6,20.4,30.18,NW,306,0.0,0.0,63,0.00,,,0.00,Wunderground v.1.15,2013-11-18 22:59:00,
2013-11-18 17:04:00,29.3,18.6,30.18,NW,306,0.0,0.0,64,0.00,,,0.00,Wunderground v.1.15,2013-11-18 23:04:00,
2013-11-18 17:09:00,27.5,18.0,30.18,NW,306,0.0,0.0,67,0.00,,,0.00,Wunderground v.1.15,2013-11-18 23:09:00,
2013-11-18 17:15:00,26.6,18.1,30.18,NW,306,0.0,0.0,70,0.00,,,0.00,Wunderground v.1.15,2013-11-18 23:15:00,
2013-11-18 17:20:00,26.2,18.1,30.18,NW,306,0.0,0.0,71,0.00,,,0.00,Wunderground v.1.15,2013-11-18 23:20:00,
2013-11-18 17:25:00,25.8,18.3,30.18,NW,306,0.0,0.0,73,0.00,,,0.00,Wunderground v.1.15,2013-11-18 23:25:00,
2013-11-18 17:30:00,25.4,18.3,30.18,NW,306,0.0,0.0,74,0.00,,,0.00,Wunderground v.1.15,2013-11-18 23:30:00,
2013-11-18 17:35:00,25.5,19.0,30.18,NW,306,0.0,0.0,76,0.00,,,0.00,Wunderground v.1.15,2013-11-18 23:35:00,
2013-11-18 17:40:00,25.0,18.5,30.19,NW,306,0.0,0.0,76,0.00,,,0.00,Wunderground v.1.15,2013-11-18 23:40:00,
2013-11-18 17:45:00,24.9,19.0,30.19,NW,306,0.0,0.0,78,0.00,,,0.00,Wunderground v.1.15,2013-11-18 23:45:00,
2013-11-18 17:50:00,25.6,20.0,30.19,NW,306,0.0,0.0,79,0.00,,,0.00,Wunderground v.1.15,2013-11-18 23:50:00,
2013-11-18 17:55:00,25.6,20.0,30.19,NW,306,0.0,0.0,79,0.00,,,0.00,Wunderground v.1.15,2013-11-18 23:55:00,
2013-11-18 18:00:00,25.5,19.9,30.19,NW,306,0.0,0.0,79,0.00,,,0.00,Wunderground v.1.15,2013-11-19 00:00:00,
2013-11-18 18:05:00,25.3,19.7,30.19,NW,306,0.0,0.0,79,0.00,,,0.00,Wunderground v.1.15,2013-11-19 00:05:00,
2013-11-18 18:10:00,24.9,19.3,30.19,NW,306,0.0,0.0,79,0.00,,,0.00,Wunderground v.1.15,2013-11-19 00:10:00,
2013-11-18 18:15:00,24.1,18.5,30.19,NW,306,0.0,0.0,79,0.00,,,0.00,Wunderground v.1.15,2013-11-19 00:15:00,
2013-11-18 18:20:00,23.6,18.3,30.20,NW,306,0.0,0.0,80,0.00,,,0.00,Wunderground v.1.15,2013-11-19 00:20:00,
2013-11-18 18:25:00,23.3,18.0,30.20,NW,306,0.0,0.0,80,0.00,,,0.00,Wunderground v.1.15,2013-11-19 00:25:00,
2013-11-18 18:30:00,22.7,17.5,30.20,NW,306,0.0,0.0,80,0.00,,,0.00,Wunderground v.1.15,2013-11-19 00:30:00,
2013-11-18 18:35:00,22.0,16.8,30.20,NW,306,0.0,0.0,80,0.00,,,0.00,Wunderground v.1.15,2013-11-19 00:35:00,
2013-11-18 18:40:00,22.5,17.8,30.20,NW,306,0.0,0.0,82,0.00,,,0.00,Wunderground v.1.15,2013-11-19 00:40:00,
2013-11-18 18:45:00,22.4,17.7,30.21,NW,306,0.0,0.0,82,0.00,,,0.00,Wunderground v.1.15,2013-11-19 00:45:00,
2013-11-18 18:50:00,21.9,17.2,30.20,NW,306,0.0,0.0,82,0.00,,,0.00,Wunderground v.1.15,2013-11-19 00:50:00,
2013-11-18 18:55:00,21.3,16.7,30.21,NW,306,0.0,0.0,82,0.00,,,0.00,Wunderground v.1.15,2013-11-19 00:55:00,
2013-11-18 19:00:00,20.6,16.0,30.21,NW,306,0.0,0.0,82,0.00,,,0.00,Wunderground v.1.15,2013-11-19 01:00:00,
2013-11-18 19:05:00,20.2,15.6,30.20,NW,306,0.0,0.0,82,0.00,,,0.00,Wunderground v.1.15,2013-11-19 01:05:00,
2013-11-18 19:10:00,20.0,15.7,30.21,NW,306,0.0,0.0,83,0.00,,,0.00,Wunderground v.1.15,2013-11-19 01:10:00,
2013-11-18 19:15:00,19.8,15.5,30.21,NW,306,0.0,0.0,83,0.00,,,0.00,Wunderground v.1.15,2013-11-19 01:15:00,
2013-11-18 19:20:00,19.7,15.4,30.21,NW,306,0.0,0.0,83,0.00,,,0.00,Wunderground v.1.15,2013-11-19 01:20:00,
2013-11-18 19:25:00,19.7,15.4,30.22,NW,306,0.0,0.0,83,0.00,,,0.00,Wunderground v.1.15,2013-11-19 01:25:00,
2013-11-18 19:30:00,19.3,15.0,30.21,NW,306,0.0,0.0,83,0.00,,,0.00,Wunderground v.1.15,2013-11-19 01:30:00,
2013-11-18 19:35:00,19.0,15.0,30.21,NW,306,0.0,0.0,84,0.00,,,0.00,Wunderground v.1.15,2013-11-19 01:35:00,
2013-11-18 19:40:00,18.9,14.9,30.21,NW,306,0.0,0.0,84,0.00,,,0.00,Wunderground v.1.15,2013-11-19 01:40:00,
2013-11-18 19:45:00,18.8,14.8,30.21,NW,306,0.0,0.0,84,0.00,,,0.00,Wunderground v.1.15,2013-11-19 01:45:00,
2013-11-18 19:50:00,18.5,14.5,30.21,NW,306,0.0,0.0,84,0.00,,,0.00,Wunderground v.1.15,2013-11-19 01:50:00,
2013-11-18 19:55:00,18.3,14.3,30.22,NW,306,0.0,0.0,84,0.00,,,0.00,Wunderground v.1.15,2013-11-19 01:55:00,
2013-11-18 20:00:00,18.3,14.5,30.22,NW,306,0.0,0.0,85,0.00,,,0.00,Wunderground v.1.15,2013-11-19 02:00:00,
2013-11-18 20:05:00,18.0,14.0,30.22,NW,306,0.0,0.0,84,0.00,,,0.00,Wunderground v.1.15,2013-11-19 02:05:00,
2013-11-18 20:10:00,17.7,14.0,30.22,NW,306,0.0,0.0,85,0.00,,,0.00,Wunderground v.1.15,2013-11-19 02:10:00,
2013-11-18 20:15:00,18.1,14.4,30.23,NW,306,0.0,0.0,85,0.00,,,0.00,Wunderground v.1.15,2013-11-19 02:15:00,
2013-11-18 20:20:00,18.6,15.1,30.22,NW,306,0.0,0.0,86,0.00,,,0.00,Wunderground v.1.15,2013-11-19 02:20:00,
2013-11-18 20:25:00,18.7,15.2,30.23,NW,306,0.0,0.0,86,0.00,,,0.00,Wunderground v.1.15,2013-11-19 02:25:00,
2013-11-18 20:30:00,18.4,14.6,30.23,NW,306,0.0,0.0,85,0.00,,,0.00,Wunderground v.1.15,2013-11-19 02:30:00,
2013-11-18 20:35:00,17.9,14.2,30.23,NW,306,0.0,0.0,85,0.00,,,0.00,Wunderground v.1.15,2013-11-19 02:35:00,
2013-11-18 20:40:00,17.9,14.4,30.23,NW,306,0.0,0.0,86,0.00,,,0.00,Wunderground v.1.15,2013-11-19 02:40:00,
2013-11-18 20:45:00,20.2,17.0,30.23,NW,306,0.0,0.0,87,0.00,,,0.00,Wunderground v.1.15,2013-11-19 02:45:00,
2013-11-18 20:50:00,20.8,17.5,30.24,NW,306,0.0,0.0,87,0.00,,,0.00,Wunderground v.1.15,2013-11-19 02:50:00,
2013-11-18 20:56:00,19.7,16.2,30.24,NW,306,0.0,0.0,86,0.00,,,0.00,Wunderground v.1.15,2013-11-19 02:56:00,
2013-11-18 21:01:00,19.5,16.0,30.24,NW,306,0.0,0.0,86,0.00,,,0.00,Wunderground v.1.15,2013-11-19 03:01:00,
2013-11-18 21:06:00,18.5,15.0,30.23,NW,306,0.0,0.0,86,0.00,,,0.00,Wunderground v.1.15,2013-11-19 03:06:00,
2013-11-18 21:11:00,19.7,16.5,30.23,NW,306,1.0,1.0,87,0.00,,,0.00,Wunderground v.1.15,2013-11-19 03:11:00,
2013-11-18 21:16:00,21.8,18.5,30.23,NW,306,0.0,3.0,87,0.00,,,0.00,Wunderground v.1.15,2013-11-19 03:16:00,
2013-11-18 21:21:00,22.4,19.1,30.23,NW,306,1.0,1.0,87,0.00,,,0.00,Wunderground v.1.15,2013-11-19 03:21:00,
2013-11-18 21:26:00,22.7,19.4,30.23,NW,306,0.0,2.0,87,0.00,,,0.00,Wunderground v.1.15,2013-11-19 03:26:00,
2013-11-18 21:32:00,23.6,20.3,30.23,NW,306,0.0,1.0,87,0.00,,,0.00,Wunderground v.1.15,2013-11-19 03:32:00,
2013-11-18 21:37:00,23.8,20.5,30.23,NW,306,0.0,1.0,87,0.00,,,0.00,Wunderground v.1.15,2013-11-19 03:37:00,
2013-11-18 21:42:00,23.8,20.5,30.23,NW,306,1.0,1.0,87,0.00,,,0.00,Wunderground v.1.15,2013-11-19 03:42:00,
2013-11-18 21:47:00,23.9,20.6,30.23,NW,306,0.0,3.0,87,0.00,,,0.00,Wunderground v.1.15,2013-11-19 03:47:00,
2013-11-18 21:52:00,24.3,21.0,30.23,NW,306,2.0,3.0,87,0.00,,,0.00,Wunderground v.1.15,2013-11-19 03:52:00,
2013-11-18 21:57:00,24.4,21.1,30.23,NW,306,2.0,4.0,87,0.00,,,0.00,Wunderground v.1.15,2013-11-19 03:57:00,
2013-11-18 22:02:00,24.5,21.2,30.22,NW,306,3.0,3.0,87,0.00,,,0.00,Wunderground v.1.15,2013-11-19 04:02:00,
2013-11-18 22:07:00,24.6,21.0,30.23,NW,306,2.0,3.0,86,0.00,,,0.00,Wunderground v.1.15,2013-11-19 04:07:00,
2013-11-18 22:12:00,24.4,20.8,30.22,NW,306,2.0,3.0,86,0.00,,,0.00,Wunderground v.1.15,2013-11-19 04:12:00,
2013-11-18 22:17:00,24.5,20.9,30.22,NW,306,2.0,4.0,86,0.00,,,0.00,Wunderground v.1.15,2013-11-19 04:17:00,
2013-11-18 22:22:00,24.5,20.9,30.22,NW,306,3.0,4.0,86,0.00,,,0.00,Wunderground v.1.15,2013-11-19 04:22:00,
2013-11-18 22:27:00,24.7,21.1,30.22,NW,306,2.0,4.0,86,0.00,,,0.00,Wunderground v.1.15,2013-11-19 04:27:00,
2013-11-18 22:32:00,24.8,21.2,30.22,NW,306,2.0,3.0,86,0.00,,,0.00,Wunderground v.1.15,2013-11-19 04:32:00,
2013-11-18 22:37:00,24.9,21.3,30.22,NW,306,2.0,3.0,86,0.00,,,0.00,Wunderground v.1.15,2013-11-19 04:37:00,
2013-11-18 22:42:00,25.3,21.7,30.22,NW,306,3.0,4.0,86,0.00,,,0.00,Wunderground v.1.15,2013-11-19 04:42:00,
2013-11-18 22:47:00,25.2,21.3,30.22,NW,306,3.0,4.0,85,0.00,,,0.00,Wunderground v.1.15,2013-11-19 04:47:00,
2013-11-18 22:52:00,25.0,21.1,30.22,NW,306,2.0,3.0,85,0.00,,,0.00,Wunderground v.1.15,2013-11-19 04:52:00,
2013-11-18 22:57:00,24.6,20.7,30.22,NW,306,3.0,4.0,85,0.00,,,0.00,Wunderground v.1.15,2013-11-19 04:57:00,
2013-11-18 23:01:00,24.3,20.4,30.22,NW,306,2.0,2.0,85,0.00,,,0.00,Wunderground v.1.15,2013-11-19 05:01:00,
2013-11-18 23:02:00,24.3,20.4,30.22,NW,306,2.0,3.0,85,0.00,,,0.00,Wunderground v.1.15,2013-11-19 05:02:00,
2013-11-18 23:03:00,24.4,20.5,30.22,NW,306,2.0,3.0,85,0.00,,,0.00,Wunderground v.1.15,2013-11-19 05:03:00,
2013-11-18 23:08:00,24.7,20.8,30.22,NW,306,3.0,4.0,85,0.00,,,0.00,Wunderground v.1.15,2013-11-19 05:08:00,
2013-11-18 23:13:00,24.9,21.0,30.22,NW,306,2.0,4.0,85,0.00,,,0.00,Wunderground v.1.15,2013-11-19 05:13:00,
2013-11-18 23:18:00,25.4,21.5,30.22,NW,306,1.0,4.0,85,0.00,,,0.00,Wunderground v.1.15,2013-11-19 05:18:00,
2013-11-18 23:23:00,25.5,21.6,30.22,NW,306,2.0,3.0,85,0.00,,,0.00,Wunderground v.1.15,2013-11-19 05:23:00,
2013-11-18 23:28:00,25.1,23.1,30.22,NW,306,2.0,3.0,92,0.00,,,0.00,Wunderground v.1.15,2013-11-19 05:28:00,
2013-11-18 23:33:00,24.8,20.9,30.22,NW,306,3.0,3.0,85,0.00,,,0.00,Wunderground v.1.15,2013-11-19 05:33:00,
2013-11-18 23:38:00,24.8,20.9,30.22,NW,306,2.0,3.0,85,0.00,,,0.00,Wunderground v.1.15,2013-11-19 05:38:00,
2013-11-18 23:43:00,24.8,20.9,30.23,NW,306,3.0,3.0,85,0.00,,,0.00,Wunderground v.1.15,2013-11-19 05:43:00,
2013-11-18 23:48:00,25.1,21.2,30.22,NW,306,1.0,4.0,85,0.00,,,0.00,Wunderground v.1.15,2013-11-19 05:48:00,
2013-11-18 23:53:00,25.4,21.8,30.22,NW,306,2.0,4.0,86,0.00,,,0.00,Wunderground v.1.15,2013-11-19 05:53:00,
2013-11-18 23:58:00,25.3,21.4,30.22,NW,306,2.0,4.0,85,0.00,,,0.00,Wunderground v.1.15,2013-11-19 05:58:00,